createdAt,value
2022-09-15T00:00:26.962Z,7.75
2022-09-15T00:02:53.418Z,9.33
2022-09-15T00:05:19.839Z,6.50
2022-09-15T00:07:48.958Z,9.00
2022-09-15T00:10:15.312Z,6.67
2022-09-15T00:12:42.522Z,9.00
2022-09-15T00:15:08.856Z,8.33
2022-09-15T00:17:35.207Z,8.00
2022-09-15T00:20:01.618Z,8.00
2022-09-15T00:22:27.975Z,9.33
2022-09-15T00:24:54.311Z,7.00
2022-09-15T00:27:21.531Z,8.75
2022-09-15T00:29:48.740Z,10.00
2022-09-15T00:32:17.841Z,8.00
2022-09-15T00:34:45.022Z,10.00
2022-09-15T00:37:12.207Z,8.00
2022-09-15T00:39:38.572Z,8.67
2022-09-15T00:42:07.700Z,8.00
2022-09-15T00:44:34.037Z,8.00
2022-09-15T00:47:18.330Z,8.00
2022-09-15T00:49:45.429Z,10.00
2022-09-15T00:52:13.627Z,7.40
2022-09-15T00:54:40.845Z,12.25
2022-09-15T00:57:08.031Z,8.75
2022-09-15T00:59:35.222Z,10.00
2022-09-15T01:02:02.487Z,9.75
2022-09-15T01:04:31.628Z,9.00
2022-09-15T01:06:57.992Z,9.00
2022-09-15T01:09:27.094Z,8.00
2022-09-15T01:11:54.293Z,9.00
2022-09-15T01:14:23.440Z,10.17
2022-09-15T01:16:52.704Z,8.17
2022-09-15T01:19:19.099Z,9.00
2022-09-15T01:21:45.465Z,8.00
2022-09-15T01:24:11.881Z,10.00
2022-09-15T01:26:38.230Z,8.00
2022-09-15T01:29:04.660Z,9.50
2022-09-15T01:31:31.026Z,8.00
2022-09-15T01:33:57.501Z,12.00
2022-09-15T01:36:26.654Z,11.33
2022-09-15T01:38:54.941Z,11.40
2022-09-15T01:41:21.351Z,9.00
2022-09-15T01:43:49.565Z,9.20
2022-09-15T01:46:18.788Z,9.67
2022-09-15T01:48:45.226Z,10.00
2022-09-15T01:51:11.580Z,9.33
2022-09-15T01:53:38.043Z,12.50
2022-09-15T01:56:06.336Z,10.60
2022-09-15T01:58:35.457Z,9.67
2022-09-15T02:01:03.809Z,10.00
2022-09-15T02:03:32.083Z,10.00
2022-09-15T02:05:58.520Z,11.50
2022-09-15T02:08:24.916Z,11.00
2022-09-15T02:10:51.362Z,10.00
2022-09-15T02:13:17.856Z,11.00
2022-09-15T02:15:45.110Z,10.50
2022-09-15T02:18:11.602Z,13.50
2022-09-15T02:20:38.848Z,11.25
2022-09-15T02:23:05.323Z,11.00
2022-09-15T02:25:31.711Z,10.33
2022-09-15T02:27:58.118Z,11.00
2022-09-15T02:30:24.495Z,9.00
2022-09-15T02:32:50.945Z,12.00
2022-09-15T02:35:18.164Z,14.00
2022-09-15T02:37:44.622Z,11.50
2022-09-15T02:40:13.867Z,10.83
2022-09-15T02:42:43.061Z,9.00
2022-09-15T02:45:10.388Z,8.75
2022-09-15T02:47:39.547Z,10.33
2022-09-15T02:50:07.848Z,11.80
2022-09-15T02:52:36.072Z,10.00
2022-09-15T02:55:02.544Z,10.50
2022-09-15T02:57:28.971Z,10.00
2022-09-15T02:59:57.247Z,11.20
2022-09-15T03:02:25.563Z,11.80
2022-09-15T03:04:54.779Z,11.33
2022-09-15T03:07:21.202Z,12.00
2022-09-15T03:09:47.555Z,8.00
2022-09-15T03:12:15.907Z,12.20
2022-09-15T03:14:42.362Z,12.00
2022-09-15T03:17:08.828Z,12.00
2022-09-15T03:19:37.115Z,12.00
2022-09-15T03:22:04.322Z,12.00
2022-09-15T03:24:30.707Z,11.50
2022-09-15T03:26:57.923Z,13.33
2022-09-15T03:29:26.248Z,13.60
2022-09-15T03:31:54.569Z,12.80
2022-09-15T03:34:21.031Z,12.00
2022-09-15T03:36:48.257Z,11.33
2022-09-15T03:39:14.665Z,13.50
2022-09-15T03:41:41.875Z,13.00
2022-09-15T03:44:08.349Z,15.00
2022-09-15T03:46:35.693Z,13.33
2022-09-15T03:49:02.148Z,13.00
2022-09-15T03:51:29.374Z,13.33
2022-09-15T03:53:56.596Z,13.00
2022-09-15T03:56:23.816Z,13.33
2022-09-15T03:58:50.303Z,13.00
2022-09-15T04:01:17.550Z,12.00
2022-09-15T04:03:48.860Z,12.00
2022-09-15T04:06:17.181Z,13.50
2022-09-15T04:08:44.471Z,13.00
2022-09-15T04:11:12.794Z,12.60
2022-09-15T04:13:41.953Z,10.83
2022-09-15T04:16:09.217Z,12.00
2022-09-15T04:18:35.704Z,9.50
2022-09-15T04:21:04.039Z,10.60
2022-09-15T04:23:33.932Z,13.29
2022-09-15T04:26:00.357Z,11.50
2022-09-15T04:28:26.763Z,11.00
2022-09-15T04:30:53.160Z,12.00
2022-09-15T04:33:19.598Z,12.00
2022-09-15T04:35:47.806Z,9.80
2022-09-15T04:38:17.720Z,13.43
2022-09-15T04:40:46.967Z,10.83
2022-09-15T04:43:13.373Z,10.50
2022-09-15T04:45:39.805Z,10.50
2022-09-15T04:48:06.332Z,10.50
2022-09-15T04:50:32.810Z,14.50
2022-09-15T04:52:59.204Z,11.00
2022-09-15T04:55:26.406Z,13.00
2022-09-15T04:57:52.812Z,12.50
2022-09-15T05:00:19.254Z,12.00
2022-09-15T05:02:45.737Z,11.00
2022-09-15T05:05:14.047Z,12.20
2022-09-15T05:07:40.497Z,11.00
2022-09-15T05:10:08.779Z,13.80
2022-09-15T05:12:35.325Z,10.50
2022-09-15T05:15:04.545Z,10.67
2022-09-15T05:17:31.757Z,13.00
2022-09-15T05:20:00.040Z,14.40
2022-09-15T05:22:26.518Z,12.00
2022-09-15T05:24:52.916Z,12.00
2022-09-15T05:27:21.168Z,12.00
2022-09-15T05:29:47.691Z,13.00
2022-09-15T05:32:15.971Z,13.20
2022-09-15T05:34:43.184Z,10.00
2022-09-15T05:37:09.641Z,11.00
2022-09-15T05:39:36.857Z,11.00
2022-09-15T05:42:03.354Z,14.00
2022-09-15T05:44:33.256Z,12.57
2022-09-15T05:47:02.471Z,11.33
2022-09-15T05:49:28.913Z,11.00
2022-09-15T05:51:55.368Z,12.00
2022-09-15T05:54:24.526Z,10.00
2022-09-15T05:56:50.934Z,11.00
2022-09-15T05:59:18.208Z,9.25
2022-09-15T06:01:44.723Z,12.00
2022-09-15T06:04:12.997Z,10.80
2022-09-15T06:06:39.447Z,11.00
2022-09-15T06:09:07.710Z,11.00
2022-09-15T06:11:34.175Z,11.00
2022-09-15T06:14:00.551Z,8.00
2022-09-15T06:16:26.957Z,9.00
2022-09-15T06:18:53.406Z,8.00
2022-09-15T06:21:19.928Z,8.00
2022-09-15T06:23:50.718Z,10.00
2022-09-15T06:26:19.189Z,9.60
2022-09-15T06:28:45.680Z,14.00
2022-09-15T06:31:13.936Z,15.40
2022-09-15T06:33:42.275Z,12.80
2022-09-15T06:36:11.451Z,11.67
2022-09-15T06:38:37.971Z,12.00
2022-09-15T06:41:05.322Z,15.33
2022-09-15T06:43:32.656Z,16.33
2022-09-15T06:45:59.131Z,14.50
2022-09-15T06:48:25.582Z,15.00
2022-09-15T06:50:52.845Z,14.67
2022-09-15T06:53:20.122Z,15.33
2022-09-15T06:55:46.574Z,15.00
2022-09-15T06:58:13.993Z,14.33
2022-09-15T07:00:40.663Z,16.00
2022-09-15T07:03:08.193Z,16.67
2022-09-15T07:05:35.701Z,13.00
2022-09-15T07:08:02.485Z,14.50
2022-09-15T07:10:30.066Z,15.00
2022-09-15T07:12:58.405Z,12.20
2022-09-15T07:15:25.641Z,14.00
2022-09-15T07:17:54.799Z,12.67
2022-09-15T07:20:23.124Z,11.00
2022-09-15T07:22:49.531Z,8.00
2022-09-15T07:25:15.943Z,10.00
2022-09-15T07:27:42.587Z,10.00
2022-09-15T07:30:09.044Z,10.00
2022-09-15T07:32:38.290Z,11.83
2022-09-15T07:35:06.540Z,13.60
2022-09-15T07:37:32.909Z,9.50
2022-09-15T07:39:59.289Z,7.00
2022-09-15T07:42:25.667Z,8.00
2022-09-15T07:44:52.951Z,12.00
2022-09-15T07:47:19.303Z,9.00
2022-09-15T07:49:45.651Z,8.00
2022-09-15T07:52:12.023Z,6.00
2022-09-15T07:54:38.347Z,7.00
2022-09-15T07:57:04.749Z,7.33
2022-09-15T07:59:31.099Z,5.67
2022-09-15T08:01:57.559Z,5.33
2022-09-15T08:04:23.949Z,4.67
2022-09-15T08:06:50.271Z,4.00
2022-09-15T08:09:17.485Z,4.00
2022-09-15T08:11:43.825Z,5.67
2022-09-15T08:14:10.140Z,6.00
2022-09-15T08:16:36.535Z,6.00
2022-09-15T08:19:02.857Z,6.00
2022-09-15T08:21:29.250Z,5.00
2022-09-15T08:23:55.562Z,6.00
2022-09-15T08:26:21.914Z,5.00
2022-09-15T08:28:48.220Z,5.00
2022-09-15T08:31:15.532Z,4.00
2022-09-15T08:33:45.462Z,4.33
2022-09-15T08:36:13.036Z,4.50
2022-09-15T08:38:39.409Z,3.00
2022-09-15T08:41:05.733Z,5.00
2022-09-15T08:43:32.086Z,4.33
2022-09-15T08:45:58.447Z,5.67
2022-09-15T08:48:24.780Z,4.00
2022-09-15T08:50:51.145Z,5.67
2022-09-15T08:53:18.363Z,6.00
2022-09-15T08:55:44.687Z,5.67
2022-09-15T08:58:11.919Z,6.75
2022-09-15T09:00:38.277Z,8.67
2022-09-15T09:03:04.669Z,7.33
2022-09-15T09:05:31.044Z,8.67
2022-09-15T09:07:57.404Z,7.33
2022-09-15T09:10:23.776Z,7.00
2022-09-15T09:12:50.097Z,6.67
2022-09-15T09:15:16.524Z,8.00
2022-09-15T09:17:42.862Z,8.00
2022-09-15T09:20:10.043Z,6.00
2022-09-15T09:22:36.389Z,5.00
2022-09-15T09:25:11.564Z,7.33
2022-09-15T09:27:47.735Z,8.00
2022-09-15T09:30:14.946Z,7.00
2022-09-15T09:32:41.275Z,6.00
2022-09-15T09:35:07.591Z,5.33
2022-09-15T09:37:33.933Z,7.00
2022-09-15T09:40:00.378Z,4.67
2022-09-15T09:42:26.811Z,4.00
2022-09-15T09:44:53.135Z,5.00
2022-09-15T09:47:19.483Z,4.00
2022-09-15T09:49:45.822Z,4.00
2022-09-15T09:52:13.037Z,4.00
2022-09-15T09:54:39.381Z,4.00
2022-09-15T09:57:05.747Z,3.67
2022-09-15T09:59:32.083Z,3.00
2022-09-15T10:01:58.410Z,2.67
2022-09-15T10:04:24.796Z,3.33
2022-09-15T10:06:51.124Z,3.00
2022-09-15T10:09:17.481Z,4.67
2022-09-15T10:11:43.847Z,3.33
2022-09-15T10:14:10.204Z,4.00
2022-09-15T10:16:37.466Z,3.00
2022-09-15T10:19:03.843Z,4.00
2022-09-15T10:21:30.175Z,4.00
2022-09-15T10:23:56.503Z,4.00
2022-09-15T10:26:22.817Z,4.00
2022-09-15T10:28:49.129Z,2.00
2022-09-15T10:31:16.564Z,4.00
2022-09-15T10:33:42.949Z,4.00
2022-09-15T10:36:09.287Z,4.00
2022-09-15T10:38:35.607Z,3.00
2022-09-15T10:41:01.939Z,3.00
2022-09-15T10:43:28.243Z,2.33
2022-09-15T10:45:54.560Z,3.00
2022-09-15T10:48:21.819Z,3.25
2022-09-15T10:50:48.095Z,3.33
2022-09-15T10:53:15.301Z,3.00
2022-09-15T10:55:52.865Z,3.00
2022-09-15T10:58:19.821Z,4.00
2022-09-15T11:00:46.196Z,3.00
2022-09-15T11:03:13.409Z,3.00
2022-09-15T11:05:39.765Z,3.67
2022-09-15T11:08:06.135Z,3.00
2022-09-15T11:10:32.473Z,4.33
2022-09-15T11:12:58.797Z,3.00
2022-09-15T11:15:25.124Z,3.00
2022-09-15T11:17:51.470Z,7.00
2022-09-15T11:20:17.818Z,6.00
2022-09-15T11:22:48.737Z,5.00
2022-09-15T11:25:15.869Z,5.00
2022-09-15T11:27:42.416Z,4.00
2022-09-15T11:30:08.820Z,4.67
2022-09-15T11:32:35.179Z,3.00
2022-09-15T11:35:01.511Z,5.00
2022-09-15T11:37:27.827Z,5.00
2022-09-15T11:39:54.196Z,4.00
2022-09-15T11:42:21.450Z,6.00
2022-09-15T11:44:47.787Z,5.00
2022-09-15T11:47:14.125Z,4.33
2022-09-15T11:49:40.500Z,5.00
2022-09-15T11:52:06.845Z,4.00
2022-09-15T11:54:33.177Z,4.67
2022-09-15T11:56:59.537Z,5.00
2022-09-15T11:59:25.839Z,3.00
2022-09-15T12:01:52.240Z,5.00
2022-09-15T12:04:19.602Z,5.00
2022-09-15T12:06:46.237Z,5.00
2022-09-15T12:09:13.560Z,5.00
2022-09-15T12:11:39.891Z,4.00
2022-09-15T12:14:06.254Z,5.00
2022-09-15T12:16:32.575Z,4.00
2022-09-15T12:18:58.912Z,4.33
2022-09-15T12:21:25.237Z,4.67
2022-09-15T12:23:51.673Z,5.00
2022-09-15T12:26:18.989Z,5.50
2022-09-15T12:28:45.328Z,4.33
2022-09-15T12:31:11.769Z,5.67
2022-09-15T12:33:38.145Z,5.67
2022-09-15T12:36:04.518Z,3.00
2022-09-15T12:38:30.863Z,4.00
2022-09-15T12:40:57.225Z,5.67
2022-09-15T12:43:23.546Z,5.00
2022-09-15T12:45:49.869Z,5.00
2022-09-15T12:48:16.179Z,5.33
2022-09-15T12:50:42.687Z,6.00
2022-09-15T12:53:09.894Z,5.00
2022-09-15T12:55:36.322Z,5.00
2022-09-15T12:58:02.663Z,5.67
2022-09-15T13:00:29.006Z,4.67
2022-09-15T13:02:55.482Z,6.00
2022-09-15T13:05:21.830Z,4.33
2022-09-15T13:07:48.162Z,5.67
2022-09-15T13:10:15.415Z,3.25
2022-09-15T13:12:41.753Z,3.00
2022-09-15T13:15:08.955Z,4.50
2022-09-15T13:17:35.300Z,3.67
2022-09-15T13:20:03.715Z,4.67
2022-09-15T13:22:30.053Z,4.00
2022-09-15T13:24:59.233Z,4.33
2022-09-15T13:27:28.046Z,4.33
2022-09-15T13:29:54.416Z,5.00
2022-09-15T13:32:20.760Z,5.00
2022-09-15T13:35:09.917Z,6.00
2022-09-15T13:40:19.741Z,6.67
2022-09-15T13:42:46.123Z,5.00
2022-09-15T13:45:13.628Z,3.67
2022-09-15T13:47:39.967Z,4.00
2022-09-15T13:50:06.331Z,4.00
2022-09-15T13:52:32.652Z,4.33
2022-09-15T13:54:58.992Z,5.67
2022-09-15T13:58:54.780Z,5.67
2022-09-15T14:00:18.212Z,5.75
2022-09-15T14:05:18.669Z,5.00
2022-09-15T14:07:46.108Z,5.00
2022-09-15T14:10:13.224Z,5.67
2022-09-15T14:12:39.582Z,3.00
2022-09-15T14:15:05.968Z,5.00
2022-09-15T14:17:32.326Z,4.00
2022-09-15T14:19:58.741Z,4.00
2022-09-15T14:22:25.252Z,4.00
2022-09-15T14:24:51.605Z,6.00
2022-09-15T14:27:18.808Z,5.00
2022-09-15T14:29:45.179Z,5.00
2022-09-15T14:32:11.660Z,3.00
2022-09-15T14:34:38.134Z,4.00
2022-09-15T14:37:04.563Z,4.00
2022-09-15T14:39:30.882Z,5.33
2022-09-15T14:41:57.207Z,4.67
2022-09-15T14:47:10.753Z,4.50
2022-09-15T14:49:37.062Z,7.00
2022-09-15T14:52:03.398Z,6.00
2022-09-15T14:54:29.704Z,5.67
2022-09-15T14:56:56.046Z,6.00
2022-09-15T14:59:22.435Z,5.00
2022-09-15T15:01:48.814Z,4.00
2022-09-15T15:04:16.070Z,6.75
2022-09-15T15:06:42.393Z,7.00
2022-09-15T15:09:08.762Z,5.33
2022-09-15T15:11:35.091Z,5.00
2022-09-15T15:14:01.416Z,4.67
2022-09-15T15:16:27.856Z,5.67
2022-09-15T15:18:54.204Z,6.33
2022-09-15T15:21:21.413Z,3.75
2022-09-15T15:23:47.945Z,4.33
2022-09-15T15:26:15.284Z,4.25
2022-09-15T15:28:41.648Z,3.00
2022-09-15T15:31:08.068Z,4.00
2022-09-15T15:33:35.300Z,6.00
2022-09-15T15:36:01.700Z,5.00
2022-09-15T15:38:28.063Z,5.00
2022-09-15T15:40:54.398Z,4.67
2022-09-15T15:43:20.759Z,6.00
2022-09-15T15:45:47.169Z,5.00
2022-09-15T15:48:13.540Z,5.00
2022-09-15T15:50:39.860Z,6.00
2022-09-15T15:53:06.216Z,6.00
2022-09-15T15:55:32.576Z,4.33
2022-09-15T15:57:59.007Z,3.00
2022-09-15T16:00:25.407Z,6.00
2022-09-15T16:02:51.748Z,7.67
2022-09-15T16:05:18.070Z,5.33
2022-09-15T16:07:44.401Z,5.67
2022-09-15T16:10:10.804Z,5.67
2022-09-15T16:12:37.195Z,6.00
2022-09-15T16:15:03.536Z,5.33
2022-09-15T16:17:29.835Z,6.33
2022-09-15T16:19:56.171Z,5.00
2022-09-15T16:22:22.500Z,5.00
2022-09-15T16:24:48.870Z,5.00
2022-09-15T16:27:15.214Z,4.67
2022-09-15T16:29:41.578Z,6.00
2022-09-15T16:32:07.929Z,4.33
2022-09-15T16:34:34.299Z,5.33
2022-09-15T16:37:00.649Z,4.00
2022-09-15T16:39:28.291Z,5.00
2022-09-15T16:41:54.660Z,4.00
2022-09-15T16:44:21.023Z,5.33
2022-09-15T16:46:47.448Z,6.00
2022-09-15T16:49:13.965Z,3.00
2022-09-15T16:51:40.458Z,6.33
2022-09-15T16:54:07.080Z,4.67
2022-09-15T16:56:33.703Z,5.67
2022-09-15T16:59:00.755Z,4.67
2022-09-15T17:01:27.423Z,5.00
2022-09-15T17:03:53.963Z,6.00
2022-09-15T17:06:21.337Z,5.50
2022-09-15T17:08:47.754Z,5.67
2022-09-15T17:11:16.477Z,8.00
2022-09-15T17:13:43.294Z,5.00
2022-09-15T17:16:10.812Z,5.25
2022-09-15T17:18:37.516Z,4.67
2022-09-15T17:21:03.978Z,7.00
2022-09-15T17:23:30.358Z,6.33
2022-09-15T17:25:56.701Z,4.33
2022-09-15T17:28:23.057Z,7.00
2022-09-15T17:30:49.676Z,5.00
2022-09-15T17:33:17.118Z,6.25
2022-09-15T17:35:43.526Z,5.67
2022-09-15T17:38:10.028Z,6.00
2022-09-15T17:40:36.520Z,4.00
2022-09-15T17:43:03.031Z,6.00
2022-09-15T17:45:29.487Z,5.00
2022-09-15T17:47:55.811Z,8.00
2022-09-15T17:50:22.265Z,6.00
2022-09-15T17:52:48.672Z,6.33
2022-09-15T17:55:15.968Z,7.25
2022-09-15T17:57:42.556Z,8.67
2022-09-15T18:00:09.905Z,8.00
2022-09-15T18:02:37.299Z,7.75
2022-09-15T18:05:03.730Z,7.33
2022-09-15T18:07:30.147Z,6.00
2022-09-15T18:09:56.629Z,6.67
2022-09-15T18:12:23.100Z,8.33
2022-09-15T18:14:49.686Z,11.00
2022-09-15T18:17:17.053Z,7.25
2022-09-15T18:19:43.524Z,8.00
2022-09-15T18:22:10.942Z,8.00
2022-09-15T18:24:37.530Z,7.00
2022-09-15T18:27:04.097Z,8.00
2022-09-15T18:29:31.429Z,8.50
2022-09-15T18:31:57.811Z,6.67
2022-09-15T18:34:24.318Z,8.00
2022-09-15T18:36:50.713Z,8.33
2022-09-15T18:39:18.075Z,8.00
2022-09-15T18:41:44.517Z,7.67
2022-09-15T18:44:11.014Z,9.50
2022-09-15T18:46:37.661Z,8.00
2022-09-15T18:49:06.914Z,9.50
2022-09-15T18:51:50.534Z,10.00
2022-09-15T18:54:17.715Z,10.00
2022-09-15T18:56:44.565Z,8.33
2022-09-15T18:59:17.461Z,9.80
2022-09-15T19:01:45.318Z,17.67
2022-09-15T19:04:11.858Z,10.50
2022-09-15T19:06:38.311Z,11.00
2022-09-15T19:09:07.523Z,9.67
2022-09-15T19:11:34.111Z,11.00
2022-09-15T19:14:03.321Z,10.83
2022-09-15T19:16:46.886Z,10.00
2022-09-15T19:19:16.210Z,10.50
2022-09-15T19:21:42.687Z,9.00
2022-09-15T19:24:09.073Z,8.50
2022-09-15T19:26:36.308Z,8.25
2022-09-15T19:29:03.563Z,8.00
2022-09-15T19:31:30.804Z,9.25
2022-09-15T19:33:57.213Z,7.33
2022-09-15T19:36:28.434Z,7.00
2022-09-15T19:38:55.497Z,7.00
2022-09-15T19:41:22.017Z,6.67
2022-09-15T19:43:48.546Z,6.00
2022-09-15T19:46:15.806Z,7.50
2022-09-15T19:48:45.645Z,7.00
2022-09-15T19:51:16.315Z,5.33
2022-09-15T19:53:42.641Z,5.00
2022-09-15T19:56:09.834Z,6.00
2022-09-15T19:58:36.250Z,5.67
2022-09-15T20:01:02.604Z,6.33
2022-09-15T20:03:30.589Z,6.00
2022-09-15T20:05:58.334Z,5.67
2022-09-15T20:08:25.397Z,5.00
2022-09-15T20:10:52.393Z,6.00
2022-09-15T20:13:19.416Z,6.67
2022-09-15T20:15:46.459Z,4.00
2022-09-15T20:18:14.381Z,5.50
2022-09-15T20:20:41.433Z,6.00
2022-09-15T20:23:17.160Z,6.33
2022-09-15T20:25:44.191Z,6.67
2022-09-15T20:28:12.119Z,14.00
2022-09-15T20:30:39.248Z,8.00
2022-09-15T20:33:06.349Z,15.50
2022-09-15T20:35:36.188Z,8.50
2022-09-15T20:38:03.124Z,8.00
2022-09-15T20:40:30.253Z,10.00
2022-09-15T20:42:56.776Z,7.67
2022-09-15T20:45:23.658Z,6.00
2022-09-15T20:47:50.136Z,6.00
2022-09-15T20:50:17.876Z,7.00
2022-09-15T20:52:44.344Z,6.00
2022-09-15T20:55:11.258Z,6.67
2022-09-15T20:57:38.251Z,4.67
2022-09-15T21:00:05.171Z,7.00
2022-09-15T21:02:31.911Z,5.67
2022-09-15T21:04:58.928Z,6.00
2022-09-15T21:07:25.463Z,7.00
2022-09-15T21:09:52.262Z,4.00
2022-09-15T21:12:18.945Z,5.00
2022-09-15T21:14:45.413Z,5.67
2022-09-15T21:17:11.841Z,6.00
2022-09-15T21:19:38.342Z,5.33
2022-09-15T21:22:04.802Z,6.00
2022-09-15T21:24:31.215Z,5.00
2022-09-15T21:26:57.623Z,4.67
2022-09-15T21:29:24.194Z,5.00
2022-09-15T21:31:50.618Z,6.00
2022-09-15T21:34:17.084Z,4.00
2022-09-15T21:36:43.488Z,5.67
2022-09-15T21:39:10.740Z,6.00
2022-09-15T21:41:37.186Z,4.67
2022-09-15T21:44:03.595Z,4.00
2022-09-15T21:46:30.019Z,5.00
2022-09-15T21:48:56.423Z,6.33
2022-09-15T21:51:25.066Z,5.00
2022-09-15T21:53:51.658Z,4.00
2022-09-15T21:56:18.911Z,5.25
2022-09-15T21:58:45.307Z,4.33
2022-09-15T22:01:12.695Z,5.50
2022-09-15T22:03:39.288Z,4.00
2022-09-15T22:06:05.846Z,5.00
2022-09-15T22:08:32.358Z,5.33
2022-09-15T22:10:58.770Z,6.33
2022-09-15T22:13:25.170Z,5.33
2022-09-15T22:15:51.561Z,6.33
2022-09-15T22:18:18.823Z,5.25
2022-09-15T22:20:45.226Z,6.00
2022-09-15T22:23:12.489Z,5.75
2022-09-15T22:25:38.942Z,5.00
2022-09-15T22:28:05.349Z,6.33
2022-09-15T22:30:31.760Z,5.00
2022-09-15T22:32:58.150Z,4.00
2022-09-15T22:35:24.541Z,5.67
2022-09-15T22:37:50.970Z,5.00
2022-09-15T22:40:17.398Z,4.00
2022-09-15T22:42:43.855Z,5.00
2022-09-15T22:45:10.455Z,5.00
2022-09-15T22:47:36.916Z,4.67
2022-09-15T22:50:03.310Z,4.33
2022-09-15T22:52:29.727Z,4.00
2022-09-15T22:54:56.124Z,4.67
2022-09-15T22:57:22.548Z,5.00
2022-09-15T22:59:49.023Z,4.00
2022-09-15T23:02:15.514Z,5.67
2022-09-15T23:04:41.885Z,4.67
2022-09-15T23:07:08.320Z,5.67
2022-09-15T23:09:34.667Z,4.00
2022-09-15T23:12:01.000Z,6.00
2022-09-15T23:14:27.343Z,4.00
2022-09-15T23:16:53.670Z,4.33
2022-09-15T23:19:20.126Z,5.00
2022-09-15T23:21:46.474Z,4.33
2022-09-15T23:24:13.685Z,5.00
2022-09-15T23:26:40.018Z,4.33
2022-09-15T23:29:06.402Z,4.00
2022-09-15T23:31:32.810Z,4.00
2022-09-15T23:33:59.166Z,2.33
2022-09-15T23:36:25.516Z,5.00
2022-09-15T23:38:51.858Z,5.00
2022-09-15T23:41:18.205Z,4.00
2022-09-15T23:43:44.542Z,4.33
2022-09-15T23:46:11.024Z,6.67
2022-09-15T23:48:37.395Z,4.00
2022-09-15T23:51:03.773Z,3.67
2022-09-15T23:53:30.130Z,4.67
2022-09-15T23:55:56.455Z,7.00
2022-09-15T23:58:22.786Z,1.33
